sensor_id;sensor_type;location;lat;lon;timestamp;pressure;altitude;pressure_sealevel;temperature;humidity
64460;BME280;50828;53.756;21.140;2022-08-19T00:05:02;99621.37;;;22.57;54.86
64460;BME280;50828;53.756;21.140;2022-08-19T00:10:09;99618.67;;;22.46;54.62
64460;BME280;50828;53.756;21.140;2022-08-19T00:15:15;99619.30;;;22.36;54.80
64460;BME280;50828;53.756;21.140;2022-08-19T00:20:21;99617.69;;;22.26;54.72
64460;BME280;50828;53.756;21.140;2022-08-19T00:25:26;99621.30;;;22.15;54.87
64460;BME280;50828;53.756;21.140;2022-08-19T00:30:33;99631.79;;;22.05;55.10
64460;BME280;50828;53.756;21.140;2022-08-19T00:35:38;99636.33;;;21.94;55.59
64460;BME280;50828;53.756;21.140;2022-08-19T00:40:44;99638.67;;;21.85;55.82
64460;BME280;50828;53.756;21.140;2022-08-19T00:45:53;99647.40;;;21.76;55.87
64460;BME280;50828;53.756;21.140;2022-08-19T00:50:58;99646.49;;;21.69;56.21
64460;BME280;50828;53.756;21.140;2022-08-19T00:56:04;99650.20;;;21.60;56.13
64460;BME280;50828;53.756;21.140;2022-08-19T01:01:10;99651.46;;;21.50;56.21
64460;BME280;50828;53.756;21.140;2022-08-19T01:06:16;99650.63;;;21.41;55.99
64460;BME280;50828;53.756;21.140;2022-08-19T01:11:23;99652.42;;;21.31;55.98
64460;BME280;50828;53.756;21.140;2022-08-19T01:16:28;99651.66;;;21.20;56.07
64460;BME280;50828;53.756;21.140;2022-08-19T01:21:36;99651.13;;;21.08;56.06
64460;BME280;50828;53.756;21.140;2022-08-19T01:26:44;99655.02;;;20.99;56.39
64460;BME280;50828;53.756;21.140;2022-08-19T01:31:51;99653.37;;;20.89;56.37
64460;BME280;50828;53.756;21.140;2022-08-19T01:36:57;99661.27;;;20.79;56.58
64460;BME280;50828;53.756;21.140;2022-08-19T01:42:02;99661.38;;;20.70;56.53
64460;BME280;50828;53.756;21.140;2022-08-19T01:47:08;99660.08;;;20.60;56.82
64460;BME280;50828;53.756;21.140;2022-08-19T01:52:14;99666.05;;;20.51;56.84
64460;BME280;50828;53.756;21.140;2022-08-19T01:57:19;99662.91;;;20.41;57.04
64460;BME280;50828;53.756;21.140;2022-08-19T02:02:25;99669.55;;;20.32;57.29
64460;BME280;50828;53.756;21.140;2022-08-19T02:07:30;99672.84;;;20.25;57.29
64460;BME280;50828;53.756;21.140;2022-08-19T02:12:36;99668.56;;;20.16;57.55
64460;BME280;50828;53.756;21.140;2022-08-19T02:17:41;99675.38;;;20.08;57.73
64460;BME280;50828;53.756;21.140;2022-08-19T02:22:47;99671.89;;;20.01;58.08
64460;BME280;50828;53.756;21.140;2022-08-19T02:27:52;99672.66;;;19.94;58.29
64460;BME280;50828;53.756;21.140;2022-08-19T02:32:58;99668.30;;;19.87;58.84
64460;BME280;50828;53.756;21.140;2022-08-19T02:38:03;99662.63;;;19.82;59.34
64460;BME280;50828;53.756;21.140;2022-08-19T02:43:26;99659.88;;;19.76;59.96
64460;BME280;50828;53.756;21.140;2022-08-19T02:48:36;99662.78;;;19.73;59.94
64460;BME280;50828;53.756;21.140;2022-08-19T02:53:41;99665.63;;;19.72;60.32
64460;BME280;50828;53.756;21.140;2022-08-19T02:58:47;99664.63;;;19.73;60.38
64460;BME280;50828;53.756;21.140;2022-08-19T03:03:55;99659.61;;;19.75;60.78
64460;BME280;50828;53.756;21.140;2022-08-19T03:09:00;99655.81;;;19.80;61.09
64460;BME280;50828;53.756;21.140;2022-08-19T03:14:07;99662.08;;;19.86;61.47
64460;BME280;50828;53.756;21.140;2022-08-19T03:19:13;99670.42;;;19.93;61.73
64460;BME280;50828;53.756;21.140;2022-08-19T03:24:19;99672.85;;;20.00;62.03
64460;BME280;50828;53.756;21.140;2022-08-19T03:29:25;99674.54;;;20.08;62.18
64460;BME280;50828;53.756;21.140;2022-08-19T03:34:34;99682.49;;;20.14;62.49
64460;BME280;50828;53.756;21.140;2022-08-19T03:39:41;99683.77;;;20.23;62.48
64460;BME280;50828;53.756;21.140;2022-08-19T03:44:47;99683.60;;;20.28;62.72
64460;BME280;50828;53.756;21.140;2022-08-19T03:49:52;99684.55;;;20.36;62.85
64460;BME280;50828;53.756;21.140;2022-08-19T03:54:58;99677.48;;;20.42;62.75
64460;BME280;50828;53.756;21.140;2022-08-19T04:00:05;99679.80;;;20.48;62.93
64460;BME280;50828;53.756;21.140;2022-08-19T04:05:16;99682.14;;;20.53;62.97
64460;BME280;50828;53.756;21.140;2022-08-19T04:10:27;99684.01;;;20.59;63.13
64460;BME280;50828;53.756;21.140;2022-08-19T04:15:32;99683.69;;;20.64;63.23
64460;BME280;50828;53.756;21.140;2022-08-19T04:20:43;99679.39;;;20.70;63.18
64460;BME280;50828;53.756;21.140;2022-08-19T04:25:49;99672.41;;;20.77;63.25
64460;BME280;50828;53.756;21.140;2022-08-19T04:30:55;99667.00;;;20.83;63.35
64460;BME280;50828;53.756;21.140;2022-08-19T04:36:01;99664.21;;;20.90;63.30
64460;BME280;50828;53.756;21.140;2022-08-19T04:41:07;99664.11;;;20.97;63.47
64460;BME280;50828;53.756;21.140;2022-08-19T04:46:31;99668.85;;;21.08;63.39
64460;BME280;50828;53.756;21.140;2022-08-19T04:51:54;99677.10;;;21.24;63.65
64460;BME280;50828;53.756;21.140;2022-08-19T04:56:59;99682.03;;;21.44;63.54
64460;BME280;50828;53.756;21.140;2022-08-19T05:02:07;99683.64;;;21.66;63.61
64460;BME280;50828;53.756;21.140;2022-08-19T05:07:13;99676.64;;;21.89;63.35
64460;BME280;50828;53.756;21.140;2022-08-19T05:12:19;99677.08;;;22.13;63.27
64460;BME280;50828;53.756;21.140;2022-08-19T05:17:29;99683.51;;;22.36;63.16
64460;BME280;50828;53.756;21.140;2022-08-19T05:22:40;99686.38;;;22.58;62.91
64460;BME280;50828;53.756;21.140;2022-08-19T05:27:46;99694.86;;;22.78;62.59
64460;BME280;50828;53.756;21.140;2022-08-19T05:32:52;99687.90;;;22.97;62.25
64460;BME280;50828;53.756;21.140;2022-08-19T05:37:59;99679.95;;;23.15;61.93
64460;BME280;50828;53.756;21.140;2022-08-19T05:43:05;99684.84;;;23.36;61.36
64460;BME280;50828;53.756;21.140;2022-08-19T05:48:11;99687.84;;;23.56;61.04
64460;BME280;50828;53.756;21.140;2022-08-19T05:53:17;99688.73;;;23.76;60.50
64460;BME280;50828;53.756;21.140;2022-08-19T05:58:23;99687.63;;;23.93;60.24
64460;BME280;50828;53.756;21.140;2022-08-19T06:03:30;99679.52;;;24.10;60.17
64460;BME280;50828;53.756;21.140;2022-08-19T06:08:36;99674.02;;;24.25;59.95
64460;BME280;50828;53.756;21.140;2022-08-19T06:13:42;99675.29;;;24.40;59.62
64460;BME280;50828;53.756;21.140;2022-08-19T06:18:49;99674.38;;;24.54;59.38
64460;BME280;50828;53.756;21.140;2022-08-19T06:23:56;99670.75;;;24.70;58.92
64460;BME280;50828;53.756;21.140;2022-08-19T06:29:02;99677.61;;;24.88;58.63
64460;BME280;50828;53.756;21.140;2022-08-19T06:34:09;99687.55;;;25.08;58.31
64460;BME280;50828;53.756;21.140;2022-08-19T06:39:15;99685.55;;;25.30;58.11
64460;BME280;50828;53.756;21.140;2022-08-19T06:44:23;99675.36;;;25.51;57.84
64460;BME280;50828;53.756;21.140;2022-08-19T06:49:30;99667.61;;;25.70;57.45
64460;BME280;50828;53.756;21.140;2022-08-19T06:54:35;99671.44;;;25.88;57.00
64460;BME280;50828;53.756;21.140;2022-08-19T06:59:58;99673.77;;;26.04;56.58
64460;BME280;50828;53.756;21.140;2022-08-19T07:05:05;99671.06;;;26.19;56.27
64460;BME280;50828;53.756;21.140;2022-08-19T07:10:13;99680.19;;;26.32;56.03
64460;BME280;50828;53.756;21.140;2022-08-19T07:15:19;99682.95;;;26.44;55.51
64460;BME280;50828;53.756;21.140;2022-08-19T07:20:25;99688.39;;;26.56;55.28
64460;BME280;50828;53.756;21.140;2022-08-19T07:25:31;99700.85;;;26.68;54.90
64460;BME280;50828;53.756;21.140;2022-08-19T07:30:38;99704.99;;;26.81;54.71
64460;BME280;50828;53.756;21.140;2022-08-19T07:35:46;99705.16;;;26.95;54.48
64460;BME280;50828;53.756;21.140;2022-08-19T07:40:52;99702.34;;;27.09;54.19
64460;BME280;50828;53.756;21.140;2022-08-19T07:45:57;99705.23;;;27.25;53.88
64460;BME280;50828;53.756;21.140;2022-08-19T07:51:04;99706.83;;;27.40;53.47
64460;BME280;50828;53.756;21.140;2022-08-19T07:56:11;99695.55;;;27.56;52.62
64460;BME280;50828;53.756;21.140;2022-08-19T08:01:18;99695.77;;;27.71;51.70
64460;BME280;50828;53.756;21.140;2022-08-19T08:06:24;99692.81;;;27.85;50.89
64460;BME280;50828;53.756;21.140;2022-08-19T08:12:03;99685.41;;;28.01;50.26
64460;BME280;50828;53.756;21.140;2022-08-19T08:17:29;99683.88;;;28.16;49.28
64460;BME280;50828;53.756;21.140;2022-08-19T08:22:53;99692.28;;;28.35;48.88
64460;BME280;50828;53.756;21.140;2022-08-19T08:28:16;99688.95;;;28.58;48.31
64460;BME280;50828;53.756;21.140;2022-08-19T08:33:23;99688.41;;;28.79;47.53
64460;BME280;50828;53.756;21.140;2022-08-19T08:38:37;99681.95;;;28.94;46.86
64460;BME280;50828;53.756;21.140;2022-08-19T08:43:44;99677.00;;;29.05;46.27
64460;BME280;50828;53.756;21.140;2022-08-19T08:48:51;99679.71;;;29.15;45.82
64460;BME280;50828;53.756;21.140;2022-08-19T08:53:59;99682.15;;;29.22;45.20
64460;BME280;50828;53.756;21.140;2022-08-19T08:59:05;99688.42;;;29.30;44.97
64460;BME280;50828;53.756;21.140;2022-08-19T09:04:13;99694.63;;;29.35;44.63
64460;BME280;50828;53.756;21.140;2022-08-19T09:09:23;99691.51;;;29.43;44.31
64460;BME280;50828;53.756;21.140;2022-08-19T09:14:37;99698.55;;;29.49;43.84
64460;BME280;50828;53.756;21.140;2022-08-19T09:19:55;99693.55;;;29.55;43.63
64460;BME280;50828;53.756;21.140;2022-08-19T09:25:01;99693.10;;;29.61;43.50
64460;BME280;50828;53.756;21.140;2022-08-19T09:30:09;99699.85;;;29.67;43.10
64460;BME280;50828;53.756;21.140;2022-08-19T09:35:16;99698.02;;;29.73;42.73
64460;BME280;50828;53.756;21.140;2022-08-19T09:40:22;99694.90;;;29.79;42.69
64460;BME280;50828;53.756;21.140;2022-08-19T09:45:28;99690.72;;;29.85;42.43
64460;BME280;50828;53.756;21.140;2022-08-19T09:50:34;99695.13;;;29.91;42.11
64460;BME280;50828;53.756;21.140;2022-08-19T09:55:56;99692.74;;;29.97;41.91
64460;BME280;50828;53.756;21.140;2022-08-19T10:01:01;99690.25;;;30.05;41.64
64460;BME280;50828;53.756;21.140;2022-08-19T10:06:08;99686.77;;;30.14;41.26
64460;BME280;50828;53.756;21.140;2022-08-19T10:11:19;99675.92;;;30.22;41.23
64460;BME280;50828;53.756;21.140;2022-08-19T10:16:38;99679.68;;;30.31;40.82
64460;BME280;50828;53.756;21.140;2022-08-19T10:21:45;99676.65;;;30.40;40.56
64460;BME280;50828;53.756;21.140;2022-08-19T10:26:51;99675.00;;;30.53;40.30
64460;BME280;50828;53.756;21.140;2022-08-19T10:32:02;99672.94;;;30.63;39.89
64460;BME280;50828;53.756;21.140;2022-08-19T10:37:12;99669.92;;;30.73;39.53
64460;BME280;50828;53.756;21.140;2022-08-19T10:42:26;99665.84;;;30.83;39.36
64460;BME280;50828;53.756;21.140;2022-08-19T10:47:32;99659.53;;;30.90;38.90
64460;BME280;50828;53.756;21.140;2022-08-19T10:52:38;99654.55;;;30.98;38.69
64460;BME280;50828;53.756;21.140;2022-08-19T10:57:52;99658.72;;;31.05;38.73
64460;BME280;50828;53.756;21.140;2022-08-19T11:03:05;99651.27;;;31.13;38.47
64460;BME280;50828;53.756;21.140;2022-08-19T11:08:11;99647.70;;;31.22;38.36
64460;BME280;50828;53.756;21.140;2022-08-19T11:13:26;99647.77;;;31.31;38.28
64460;BME280;50828;53.756;21.140;2022-08-19T11:18:32;99636.05;;;31.38;38.15
64460;BME280;50828;53.756;21.140;2022-08-19T11:23:38;99635.94;;;31.47;37.94
64460;BME280;50828;53.756;21.140;2022-08-19T11:28:44;99624.55;;;31.55;37.57
64460;BME280;50828;53.756;21.140;2022-08-19T11:33:49;99621.86;;;31.62;37.44
64460;BME280;50828;53.756;21.140;2022-08-19T11:38:57;99618.32;;;31.70;37.20
64460;BME280;50828;53.756;21.140;2022-08-19T11:44:03;99616.66;;;31.75;37.16
64460;BME280;50828;53.756;21.140;2022-08-19T11:49:11;99625.36;;;31.82;36.93
64460;BME280;50828;53.756;21.140;2022-08-19T11:54:17;99613.30;;;31.82;36.71
64460;BME280;50828;53.756;21.140;2022-08-19T11:59:23;99608.84;;;31.83;36.68
64460;BME280;50828;53.756;21.140;2022-08-19T12:04:31;99597.94;;;31.81;36.76
64460;BME280;50828;53.756;21.140;2022-08-19T12:09:37;99595.08;;;31.82;36.82
64460;BME280;50828;53.756;21.140;2022-08-19T12:14:45;99581.86;;;31.86;36.90
64460;BME280;50828;53.756;21.140;2022-08-19T12:19:50;99579.09;;;31.90;36.60
64460;BME280;50828;53.756;21.140;2022-08-19T12:24:56;99578.70;;;31.95;36.31
64460;BME280;50828;53.756;21.140;2022-08-19T12:30:02;99573.02;;;31.99;35.92
64460;BME280;50828;53.756;21.140;2022-08-19T12:35:08;99562.58;;;32.04;35.85
64460;BME280;50828;53.756;21.140;2022-08-19T12:40:15;99559.13;;;32.10;35.70
64460;BME280;50828;53.756;21.140;2022-08-19T12:45:21;99553.58;;;32.15;35.52
64460;BME280;50828;53.756;21.140;2022-08-19T12:50:27;99557.29;;;32.20;35.47
64460;BME280;50828;53.756;21.140;2022-08-19T12:55:33;99549.45;;;32.25;35.21
64460;BME280;50828;53.756;21.140;2022-08-19T13:00:39;99558.39;;;32.29;34.93
64460;BME280;50828;53.756;21.140;2022-08-19T13:05:44;99555.86;;;32.31;34.89
64460;BME280;50828;53.756;21.140;2022-08-19T13:10:49;99547.69;;;32.33;34.82
64460;BME280;50828;53.756;21.140;2022-08-19T13:15:59;99549.45;;;32.35;34.50
64460;BME280;50828;53.756;21.140;2022-08-19T13:21:06;99543.48;;;32.35;34.50
64460;BME280;50828;53.756;21.140;2022-08-19T13:26:12;99540.11;;;32.35;34.58
64460;BME280;50828;53.756;21.140;2022-08-19T13:31:18;99538.60;;;32.37;34.72
64460;BME280;50828;53.756;21.140;2022-08-19T13:36:41;99534.04;;;32.40;34.67
64460;BME280;50828;53.756;21.140;2022-08-19T13:41:46;99530.54;;;32.42;34.45
64460;BME280;50828;53.756;21.140;2022-08-19T13:46:53;99523.34;;;32.44;34.55
64460;BME280;50828;53.756;21.140;2022-08-19T13:51:59;99528.54;;;32.47;34.28
64460;BME280;50828;53.756;21.140;2022-08-19T13:57:04;99528.32;;;32.48;34.07
64460;BME280;50828;53.756;21.140;2022-08-19T14:02:10;99526.96;;;32.49;33.92
64460;BME280;50828;53.756;21.140;2022-08-19T14:07:15;99526.30;;;32.47;33.85
64460;BME280;50828;53.756;21.140;2022-08-19T14:12:21;99533.45;;;32.47;33.79
64460;BME280;50828;53.756;21.140;2022-08-19T14:17:31;99522.37;;;32.44;33.68
64460;BME280;50828;53.756;21.140;2022-08-19T14:22:38;99522.59;;;32.41;33.70
64460;BME280;50828;53.756;21.140;2022-08-19T14:27:44;99520.27;;;32.38;33.73
64460;BME280;50828;53.756;21.140;2022-08-19T14:32:49;99520.95;;;32.36;33.60
64460;BME280;50828;53.756;21.140;2022-08-19T14:37:55;99522.42;;;32.33;33.56
64460;BME280;50828;53.756;21.140;2022-08-19T14:43:02;99518.70;;;32.31;33.64
64460;BME280;50828;53.756;21.140;2022-08-19T14:48:08;99510.27;;;32.28;33.40
64460;BME280;50828;53.756;21.140;2022-08-19T14:53:22;99518.10;;;32.25;33.31
64460;BME280;50828;53.756;21.140;2022-08-19T14:58:28;99510.44;;;32.20;33.38
64460;BME280;50828;53.756;21.140;2022-08-19T15:03:34;99514.02;;;32.15;33.28
64460;BME280;50828;53.756;21.140;2022-08-19T15:08:40;99522.25;;;32.12;33.43
64460;BME280;50828;53.756;21.140;2022-08-19T15:13:46;99532.88;;;32.10;33.53
64460;BME280;50828;53.756;21.140;2022-08-19T15:18:52;99527.88;;;32.06;33.59
64460;BME280;50828;53.756;21.140;2022-08-19T15:23:59;99536.98;;;32.05;33.66
64460;BME280;50828;53.756;21.140;2022-08-19T15:29:05;99535.79;;;32.00;33.61
64460;BME280;50828;53.756;21.140;2022-08-19T15:34:11;99534.61;;;31.98;33.58
64460;BME280;50828;53.756;21.140;2022-08-19T15:39:16;99536.52;;;31.94;33.81
64460;BME280;50828;53.756;21.140;2022-08-19T15:44:22;99534.86;;;31.89;33.86
64460;BME280;50828;53.756;21.140;2022-08-19T15:49:27;99527.69;;;31.85;33.86
64460;BME280;50828;53.756;21.140;2022-08-19T15:54:33;99532.28;;;31.83;33.84
64460;BME280;50828;53.756;21.140;2022-08-19T15:59:39;99534.72;;;31.82;33.69
64460;BME280;50828;53.756;21.140;2022-08-19T16:05:08;99530.40;;;31.79;33.60
64460;BME280;50828;53.756;21.140;2022-08-19T16:10:34;99529.77;;;31.75;33.59
64460;BME280;50828;53.756;21.140;2022-08-19T16:15:41;99524.08;;;31.73;33.46
64460;BME280;50828;53.756;21.140;2022-08-19T16:20:47;99526.44;;;31.70;33.25
64460;BME280;50828;53.756;21.140;2022-08-19T16:25:53;99528.92;;;31.66;33.17
64460;BME280;50828;53.756;21.140;2022-08-19T16:30:58;99531.11;;;31.60;33.24
64460;BME280;50828;53.756;21.140;2022-08-19T16:36:05;99523.95;;;31.53;33.13
64460;BME280;50828;53.756;21.140;2022-08-19T16:41:12;99522.71;;;31.47;33.45
64460;BME280;50828;53.756;21.140;2022-08-19T16:46:18;99523.69;;;31.42;33.57
64460;BME280;50828;53.756;21.140;2022-08-19T16:51:25;99525.75;;;31.35;33.69
64460;BME280;50828;53.756;21.140;2022-08-19T16:56:31;99528.19;;;31.27;33.97
64460;BME280;50828;53.756;21.140;2022-08-19T17:01:36;99527.48;;;31.22;34.13
64460;BME280;50828;53.756;21.140;2022-08-19T17:06:44;99526.10;;;31.15;34.35
64460;BME280;50828;53.756;21.140;2022-08-19T17:11:50;99523.13;;;31.07;34.47
64460;BME280;50828;53.756;21.140;2022-08-19T17:16:55;99522.92;;;31.00;34.57
64460;BME280;50828;53.756;21.140;2022-08-19T17:22:01;99525.65;;;30.91;34.40
64460;BME280;50828;53.756;21.140;2022-08-19T17:27:06;99525.52;;;30.80;34.48
64460;BME280;50828;53.756;21.140;2022-08-19T17:32:12;99529.91;;;30.71;34.43
64460;BME280;50828;53.756;21.140;2022-08-19T17:37:17;99532.62;;;30.61;34.58
64460;BME280;50828;53.756;21.140;2022-08-19T17:42:23;99535.44;;;30.49;34.58
64460;BME280;50828;53.756;21.140;2022-08-19T17:47:29;99542.73;;;30.38;34.69
64460;BME280;50828;53.756;21.140;2022-08-19T17:52:36;99548.75;;;30.28;34.82
64460;BME280;50828;53.756;21.140;2022-08-19T17:57:41;99552.27;;;30.18;34.89
64460;BME280;50828;53.756;21.140;2022-08-19T18:02:50;99564.75;;;30.07;34.90
64460;BME280;50828;53.756;21.140;2022-08-19T18:07:56;99569.81;;;29.96;35.00
64460;BME280;50828;53.756;21.140;2022-08-19T18:13:02;99580.17;;;29.85;35.22
64460;BME280;50828;53.756;21.140;2022-08-19T18:18:20;99581.45;;;29.74;35.35
64460;BME280;50828;53.756;21.140;2022-08-19T18:23:25;99590.55;;;29.62;35.58
64460;BME280;50828;53.756;21.140;2022-08-19T18:28:48;99596.98;;;29.50;35.85
64460;BME280;50828;53.756;21.140;2022-08-19T18:33:55;99592.83;;;29.38;36.14
64460;BME280;50828;53.756;21.140;2022-08-19T18:39:00;99593.08;;;29.27;36.42
64460;BME280;50828;53.756;21.140;2022-08-19T18:44:24;99596.33;;;29.14;36.81
64460;BME280;50828;53.756;21.140;2022-08-19T18:49:47;99602.92;;;29.00;37.17
64460;BME280;50828;53.756;21.140;2022-08-19T18:54:53;99609.86;;;28.87;37.37
64460;BME280;50828;53.756;21.140;2022-08-19T18:59:59;99606.33;;;28.73;37.95
64460;BME280;50828;53.756;21.140;2022-08-19T19:05:07;99610.42;;;28.62;38.07
64460;BME280;50828;53.756;21.140;2022-08-19T19:10:13;99607.71;;;28.50;38.34
64460;BME280;50828;53.756;21.140;2022-08-19T19:15:18;99612.83;;;28.38;38.53
64460;BME280;50828;53.756;21.140;2022-08-19T19:20:24;99618.44;;;28.26;38.89
64460;BME280;50828;53.756;21.140;2022-08-19T19:25:39;99614.91;;;28.15;39.05
64460;BME280;50828;53.756;21.140;2022-08-19T19:30:53;99615.24;;;28.03;39.39
64460;BME280;50828;53.756;21.140;2022-08-19T19:36:00;99615.41;;;27.93;39.62
64460;BME280;50828;53.756;21.140;2022-08-19T19:41:05;99615.62;;;27.82;39.83
64460;BME280;50828;53.756;21.140;2022-08-19T19:46:11;99619.18;;;27.72;39.93
64460;BME280;50828;53.756;21.140;2022-08-19T19:51:16;99615.83;;;27.62;40.09
64460;BME280;50828;53.756;21.140;2022-08-19T19:56:22;99621.52;;;27.54;40.26
64460;BME280;50828;53.756;21.140;2022-08-19T20:01:28;99624.41;;;27.44;40.43
64460;BME280;50828;53.756;21.140;2022-08-19T20:06:34;99621.41;;;27.37;40.66
64460;BME280;50828;53.756;21.140;2022-08-19T20:11:40;99617.16;;;27.28;40.74
64460;BME280;50828;53.756;21.140;2022-08-19T20:16:46;99607.89;;;27.19;40.79
64460;BME280;50828;53.756;21.140;2022-08-19T20:21:52;99606.64;;;27.11;40.99
64460;BME280;50828;53.756;21.140;2022-08-19T20:27:00;99605.86;;;27.03;41.09
64460;BME280;50828;53.756;21.140;2022-08-19T20:32:06;99606.11;;;26.96;41.29
64460;BME280;50828;53.756;21.140;2022-08-19T20:37:11;99598.04;;;26.87;41.34
64460;BME280;50828;53.756;21.140;2022-08-19T20:42:17;99601.64;;;26.81;41.43
64460;BME280;50828;53.756;21.140;2022-08-19T20:47:23;99595.27;;;26.74;41.46
64460;BME280;50828;53.756;21.140;2022-08-19T20:52:28;99597.50;;;26.68;41.58
64460;BME280;50828;53.756;21.140;2022-08-19T20:57:34;99598.92;;;26.61;41.71
64460;BME280;50828;53.756;21.140;2022-08-19T21:02:40;99608.00;;;26.54;41.85
64460;BME280;50828;53.756;21.140;2022-08-19T21:07:45;99611.40;;;26.47;42.02
64460;BME280;50828;53.756;21.140;2022-08-19T21:12:51;99614.38;;;26.40;42.01
64460;BME280;50828;53.756;21.140;2022-08-19T21:17:58;99617.58;;;26.34;42.15
64460;BME280;50828;53.756;21.140;2022-08-19T21:23:06;99617.81;;;26.27;42.17
64460;BME280;50828;53.756;21.140;2022-08-19T21:28:13;99622.38;;;26.20;42.18
64460;BME280;50828;53.756;21.140;2022-08-19T21:33:37;99619.28;;;26.12;42.50
64460;BME280;50828;53.756;21.140;2022-08-19T21:38:43;99618.46;;;26.07;42.47
64460;BME280;50828;53.756;21.140;2022-08-19T21:43:49;99620.40;;;25.99;42.54
64460;BME280;50828;53.756;21.140;2022-08-19T21:48:54;99616.94;;;25.93;42.77
64460;BME280;50828;53.756;21.140;2022-08-19T21:54:00;99617.26;;;25.87;42.89
64460;BME280;50828;53.756;21.140;2022-08-19T21:59:05;99613.52;;;25.80;42.99
64460;BME280;50828;53.756;21.140;2022-08-19T22:04:11;99613.68;;;25.74;43.34
64460;BME280;50828;53.756;21.140;2022-08-19T22:09:16;99611.83;;;25.69;43.37
64460;BME280;50828;53.756;21.140;2022-08-19T22:14:23;99603.86;;;25.65;43.42
64460;BME280;50828;53.756;21.140;2022-08-19T22:19:31;99597.17;;;25.62;43.58
64460;BME280;50828;53.756;21.140;2022-08-19T22:24:37;99586.23;;;25.58;43.47
64460;BME280;50828;53.756;21.140;2022-08-19T22:29:42;99581.16;;;25.55;43.58
64460;BME280;50828;53.756;21.140;2022-08-19T22:34:48;99577.61;;;25.53;43.67
64460;BME280;50828;53.756;21.140;2022-08-19T22:39:53;99564.35;;;25.49;43.59
64460;BME280;50828;53.756;21.140;2022-08-19T22:44:59;99563.60;;;25.48;43.51
64460;BME280;50828;53.756;21.140;2022-08-19T22:50:05;99562.77;;;25.45;43.56
64460;BME280;50828;53.756;21.140;2022-08-19T22:55:16;99564.79;;;25.43;43.44
64460;BME280;50828;53.756;21.140;2022-08-19T23:00:22;99574.09;;;25.44;43.58
64460;BME280;50828;53.756;21.140;2022-08-19T23:05:29;99581.27;;;25.42;43.48
64460;BME280;50828;53.756;21.140;2022-08-19T23:10:39;99587.98;;;25.42;43.63
64460;BME280;50828;53.756;21.140;2022-08-19T23:15:45;99594.83;;;25.42;43.70
64460;BME280;50828;53.756;21.140;2022-08-19T23:20:51;99609.79;;;25.42;43.48
64460;BME280;50828;53.756;21.140;2022-08-19T23:25:57;99635.95;;;25.42;43.61
64460;BME280;50828;53.756;21.140;2022-08-19T23:31:02;99656.02;;;25.43;43.38
64460;BME280;50828;53.756;21.140;2022-08-19T23:36:11;99658.80;;;25.44;43.50
64460;BME280;50828;53.756;21.140;2022-08-19T23:41:17;99658.34;;;25.45;43.42
64460;BME280;50828;53.756;21.140;2022-08-19T23:46:23;99672.41;;;25.46;43.50
64460;BME280;50828;53.756;21.140;2022-08-19T23:51:30;99685.29;;;25.45;43.70
64460;BME280;50828;53.756;21.140;2022-08-19T23:56:36;99681.78;;;25.44;43.91
